createdAt,value
2022-12-11T00:05:06.730Z,99430.73
2022-12-11T00:10:22.524Z,99428.36
2022-12-11T00:15:47.619Z,99423.14
2022-12-11T00:21:20.206Z,99429.05
2022-12-11T00:26:27.625Z,99435.30
2022-12-11T00:31:34.485Z,99433.27
2022-12-11T00:36:41.823Z,99428.70
2022-12-11T00:41:49.410Z,99435.80
2022-12-11T00:46:56.337Z,99443.05
2022-12-11T00:52:03.222Z,99440.19
2022-12-11T00:57:10.087Z,99439.36
2022-12-11T01:02:17.196Z,99432.77
2022-12-11T01:07:24.844Z,99428.87
2022-12-11T01:12:31.745Z,99434.27
2022-12-11T01:17:39.123Z,99441.70
2022-12-11T01:22:46.113Z,99441.86
2022-12-11T01:27:55.290Z,99443.23
2022-12-11T01:33:02.510Z,99444.07
2022-12-11T01:38:10.795Z,99443.23
2022-12-11T01:43:17.929Z,99447.63
2022-12-11T01:48:28.789Z,99438.33
2022-12-11T01:53:43.663Z,99435.62
2022-12-11T01:58:55.089Z,99438.84
2022-12-11T02:04:03.313Z,99431.90
2022-12-11T02:09:14.165Z,99421.44
2022-12-11T02:14:33.815Z,99407.10
2022-12-11T02:19:59.680Z,99399.16
2022-12-11T02:25:19.064Z,99390.90
2022-12-11T02:30:26.974Z,99385.32
2022-12-11T02:35:41.174Z,99381.77
2022-12-11T02:40:53.252Z,99383.30
2022-12-11T02:46:01.872Z,99392.91
2022-12-11T02:51:13.732Z,99401.68
2022-12-11T02:56:28.242Z,99395.77
2022-12-11T03:01:37.851Z,99394.41
2022-12-11T03:06:51.027Z,99402.18
2022-12-11T03:11:58.049Z,99403.20
2022-12-11T03:17:14.518Z,99397.79
2022-12-11T03:22:26.446Z,99404.19
2022-12-11T03:27:40.030Z,99412.14
2022-12-11T03:32:52.743Z,99410.61
2022-12-11T03:38:03.231Z,99410.79
2022-12-11T03:43:12.387Z,99413.14
2022-12-11T03:48:22.327Z,99410.09
2022-12-11T03:53:30.250Z,99411.61
2022-12-11T03:58:37.491Z,99406.88
2022-12-11T04:03:45.676Z,99406.20
2022-12-11T04:08:53.243Z,99394.89
2022-12-11T04:14:26.973Z,99386.47
2022-12-11T04:19:51.912Z,99383.77
2022-12-11T04:24:59.410Z,99383.59
2022-12-11T04:30:09.204Z,99384.10
2022-12-11T04:35:17.245Z,99376.00
2022-12-11T04:40:25.816Z,99373.98
2022-12-11T04:45:33.274Z,99375.33
2022-12-11T04:50:40.466Z,99366.90
2022-12-11T04:55:47.700Z,99359.48
2022-12-11T05:00:57.721Z,99371.77
2022-12-11T05:06:05.288Z,99366.89
2022-12-11T05:11:14.441Z,99363.84
2022-12-11T05:16:21.843Z,99357.77
2022-12-11T05:21:34.657Z,99362.98
2022-12-11T05:26:42.933Z,99351.51
2022-12-11T05:31:50.263Z,99346.95
2022-12-11T05:36:57.337Z,99354.20
2022-12-11T05:42:04.538Z,99354.39
2022-12-11T05:47:12.622Z,99352.52
2022-12-11T05:52:20.183Z,99348.48
2022-12-11T05:57:27.286Z,99351.17
2022-12-11T06:02:37.911Z,99356.39
2022-12-11T06:07:47.734Z,99357.23
2022-12-11T06:12:54.936Z,99363.14
2022-12-11T06:18:02.053Z,99366.52
2022-12-11T06:23:09.633Z,99369.55
2022-12-11T06:28:18.399Z,99370.55
2022-12-11T06:33:25.816Z,99384.54
2022-12-11T06:38:33.121Z,99392.46
2022-12-11T06:43:42.985Z,99391.61
2022-12-11T06:48:50.982Z,99400.38
2022-12-11T06:53:59.698Z,99395.31
2022-12-11T06:59:07.739Z,99402.91
2022-12-11T07:04:15.017Z,99404.75
2022-12-11T07:09:23.065Z,99402.91
2022-12-11T07:14:30.650Z,99400.37
2022-12-11T07:19:37.688Z,99404.59
2022-12-11T07:24:44.772Z,99396.67
2022-12-11T07:29:56.263Z,99402.06
2022-12-11T07:35:03.436Z,99403.59
2022-12-11T07:40:13.962Z,99405.29
2022-12-11T07:45:21.013Z,99407.47
2022-12-11T07:50:28.034Z,99409.82
2022-12-11T07:55:36.034Z,99404.26
2022-12-11T08:00:45.019Z,99396.66
2022-12-11T08:05:53.528Z,99397.33
2022-12-11T08:11:14.770Z,99401.36
2022-12-11T08:16:25.614Z,99410.94
2022-12-11T08:21:32.577Z,99412.28
2022-12-11T08:26:39.779Z,99410.75
2022-12-11T08:31:46.974Z,99401.83
2022-12-11T08:36:54.221Z,99402.83
2022-12-11T08:42:01.158Z,99397.59
2022-12-11T08:47:09.910Z,99403.48
2022-12-11T08:52:17.006Z,99404.65
2022-12-11T08:57:24.034Z,99398.40
2022-12-11T09:02:31.256Z,99410.20
2022-12-11T09:07:39.075Z,99416.26
2022-12-11T09:12:46.057Z,99412.52
2022-12-11T09:17:53.275Z,99407.11
2022-12-11T09:23:02.777Z,99400.20
2022-12-11T09:28:10.207Z,99389.77
2022-12-11T09:33:17.637Z,99388.10
2022-12-11T09:38:24.887Z,99376.46
2022-12-11T09:43:43.585Z,99369.73
2022-12-11T09:48:53.692Z,99362.30
2022-12-11T09:54:04.204Z,99359.80
2022-12-11T09:59:24.212Z,99358.79
2022-12-11T10:04:44.931Z,99349.81
2022-12-11T10:10:00.141Z,99346.29
2022-12-11T10:15:32.509Z,99348.31
2022-12-11T10:20:42.869Z,99342.73
2022-12-11T10:25:55.386Z,99337.34
2022-12-11T10:31:12.136Z,99322.67
2022-12-11T10:36:26.885Z,99312.56
2022-12-11T10:41:41.300Z,99314.59
2022-12-11T10:46:49.313Z,99307.86
2022-12-11T10:51:58.114Z,99307.37
2022-12-11T10:57:07.042Z,99309.22
2022-12-11T11:02:24.597Z,99304.34
2022-12-11T11:07:33.498Z,99307.02
2022-12-11T11:12:44.378Z,99302.46
2022-12-11T11:17:55.789Z,99293.02
2022-12-11T11:23:06.366Z,99290.32
2022-12-11T11:28:21.917Z,99280.86
2022-12-11T11:33:29.702Z,99271.92
2022-12-11T11:38:40.435Z,99272.41
2022-12-11T11:43:50.193Z,99271.23
2022-12-11T11:49:06.375Z,99265.66
2022-12-11T11:54:25.630Z,99268.86
2022-12-11T11:59:36.018Z,99258.91
2022-12-11T12:04:52.560Z,99258.42
2022-12-11T12:10:16.379Z,99252.01
2022-12-11T12:15:36.809Z,99254.20
2022-12-11T12:20:49.762Z,99257.41
2022-12-11T12:26:11.813Z,99249.15
2022-12-11T12:31:43.750Z,99244.45
2022-12-11T12:37:01.231Z,99244.95
2022-12-11T12:42:18.868Z,99245.45
2022-12-11T12:47:28.171Z,99241.73
2022-12-11T12:52:41.358Z,99245.77
2022-12-11T12:57:57.776Z,99242.07
2022-12-11T13:03:20.623Z,99241.91
2022-12-11T13:08:50.183Z,99245.11
2022-12-11T13:14:06.547Z,99248.14
2022-12-11T13:19:42.698Z,99257.05
2022-12-11T13:24:59.824Z,99249.48
2022-12-11T13:30:26.624Z,99246.77
2022-12-11T13:35:44.102Z,99253.85
2022-12-11T13:41:00.173Z,99255.68
2022-12-11T13:46:12.993Z,99249.61
2022-12-11T13:51:29.201Z,99254.31
2022-12-11T13:56:41.290Z,99252.11
2022-12-11T14:01:50.859Z,99246.55
2022-12-11T14:07:02.518Z,99250.92
2022-12-11T14:12:20.261Z,99248.08
2022-12-11T14:17:31.162Z,99258.85
2022-12-11T14:22:45.238Z,99263.71
2022-12-11T14:28:01.966Z,99257.84
2022-12-11T14:33:13.952Z,99260.87
2022-12-11T14:38:29.340Z,99254.63
2022-12-11T14:43:51.725Z,99251.59
2022-12-11T14:49:07.533Z,99244.52
2022-12-11T14:54:31.166Z,99238.96
2022-12-11T14:59:50.095Z,99236.94
2022-12-11T15:05:18.385Z,99243.84
2022-12-11T15:10:37.602Z,99245.99
2022-12-11T15:15:53.973Z,99253.05
2022-12-11T15:21:12.966Z,99249.00
2022-12-11T15:26:36.680Z,99254.20
2022-12-11T15:31:49.885Z,99253.19
2022-12-11T15:37:01.478Z,99259.75
2022-12-11T15:42:20.546Z,99255.69
2022-12-11T15:47:34.356Z,99256.52
2022-12-11T15:52:51.356Z,99251.77
2022-12-11T15:58:08.692Z,99246.23
2022-12-11T16:03:26.740Z,99235.10
2022-12-11T16:08:41.597Z,99240.13
2022-12-11T16:13:51.377Z,99248.20
2022-12-11T16:18:59.981Z,99244.83
2022-12-11T16:24:14.894Z,99241.48
2022-12-11T16:29:24.115Z,99243.33
2022-12-11T16:34:35.116Z,99241.31
2022-12-11T16:39:56.118Z,99237.61
2022-12-11T16:45:14.863Z,99238.30
2022-12-11T16:50:32.424Z,99239.47
2022-12-11T16:55:56.864Z,99234.75
2022-12-11T17:01:15.642Z,99232.73
2022-12-11T17:06:34.211Z,99234.58
2022-12-11T17:11:53.877Z,99233.89
2022-12-11T17:17:11.084Z,99230.37
2022-12-11T17:22:23.087Z,99227.67
2022-12-11T17:27:38.982Z,99225.49
2022-12-11T17:32:52.269Z,99229.05
2022-12-11T17:38:04.952Z,99231.58
2022-12-11T17:43:24.232Z,99233.25
2022-12-11T17:48:38.984Z,99234.43
2022-12-11T17:53:50.815Z,99231.39
2022-12-11T17:59:07.613Z,99233.75
2022-12-11T18:04:28.933Z,99234.59
2022-12-11T18:09:58.426Z,99239.30
2022-12-11T18:15:09.537Z,99239.13
2022-12-11T18:20:24.031Z,99240.65
2022-12-11T18:25:40.035Z,99239.80
2022-12-11T18:30:49.062Z,99241.84
2022-12-11T18:35:59.873Z,99241.67
2022-12-11T18:41:11.793Z,99235.77
2022-12-11T18:46:24.963Z,99239.98
2022-12-11T18:51:33.722Z,99241.14
2022-12-11T18:56:42.382Z,99237.96
2022-12-11T19:01:56.049Z,99233.08
2022-12-11T19:07:04.905Z,99233.74
2022-12-11T19:12:16.719Z,99235.27
2022-12-11T19:17:31.462Z,99230.20
2022-12-11T19:22:39.782Z,99227.01
2022-12-11T19:27:50.641Z,99220.94
2022-12-11T19:32:58.539Z,99217.74
2022-12-11T19:38:05.807Z,99223.29
2022-12-11T19:43:14.456Z,99220.77
2022-12-11T19:48:24.694Z,99226.48
2022-12-11T19:53:34.928Z,99218.22
2022-12-11T19:58:45.735Z,99216.70
2022-12-11T20:03:54.824Z,99217.55
2022-12-11T20:09:24.745Z,99220.39
2022-12-11T20:14:42.787Z,99221.06
2022-12-11T20:19:53.582Z,99219.39
2022-12-11T20:25:01.285Z,99216.19
2022-12-11T20:30:18.424Z,99215.35
2022-12-11T20:35:27.845Z,99211.99
2022-12-11T20:40:46.119Z,99215.86
2022-12-11T20:45:54.863Z,99220.59
2022-12-11T20:51:09.438Z,99216.39
2022-12-11T20:56:21.658Z,99213.04
2022-12-11T21:01:35.166Z,99206.98
2022-12-11T21:07:00.078Z,99200.59
2022-12-11T21:12:15.087Z,99196.21
2022-12-11T21:17:49.044Z,99199.09
2022-12-11T21:23:22.796Z,99188.32
2022-12-11T21:28:44.378Z,99192.20
2022-12-11T21:33:56.488Z,99191.84
2022-12-11T21:39:06.150Z,99196.73
2022-12-11T21:49:45.383Z,99199.58
2022-12-11T21:54:58.422Z,99197.55
2022-12-11T22:00:13.368Z,99201.42
2022-12-11T22:18:45.595Z,99195.52
2022-12-11T22:23:54.187Z,99193.99
2022-12-11T22:29:02.293Z,99195.17
2022-12-11T22:34:16.801Z,99190.98
2022-12-11T22:39:39.493Z,99194.67
2022-12-11T22:44:47.458Z,99192.99
2022-12-11T22:50:04.881Z,99192.66
2022-12-11T22:55:18.399Z,99188.61
2022-12-11T23:00:42.488Z,99191.47
2022-12-11T23:06:01.974Z,99188.80
2022-12-11T23:11:16.578Z,99189.63
2022-12-11T23:16:26.014Z,99193.99
2022-12-11T23:21:36.061Z,99187.11
2022-12-11T23:26:45.043Z,99188.28
2022-12-11T23:31:55.476Z,99183.58
2022-12-11T23:37:05.380Z,99174.48
2022-12-11T23:42:14.892Z,99180.05
2022-12-11T23:47:22.225Z,99181.05
2022-12-11T23:52:33.868Z,99179.04
2022-12-11T23:57:43.592Z,99185.09
